sensor_id;sensor_type;location;lat;lon;timestamp;P1;P2;P0
46044;PMS7003;31781;54.094;13.428;2024-03-08T00:01:05;2.00;1.33;1.00
46044;PMS7003;31781;54.094;13.428;2024-03-08T00:07:07;5.67;5.67;2.00
46044;PMS7003;31781;54.094;13.428;2024-03-08T00:13:09;3.33;3.33;2.00
46044;PMS7003;31781;54.094;13.428;2024-03-08T00:19:11;4.33;4.33;4.00
46044;PMS7003;31781;54.094;13.428;2024-03-08T00:25:13;4.33;4.33;2.67
46044;PMS7003;31781;54.094;13.428;2024-03-08T00:31:16;4.67;2.33;1.33
46044;PMS7003;31781;54.094;13.428;2024-03-08T00:37:17;4.33;4.33;2.00
46044;PMS7003;31781;54.094;13.428;2024-03-08T00:43:19;4.00;4.00;2.00
46044;PMS7003;31781;54.094;13.428;2024-03-08T00:49:22;6.33;4.67;2.00
46044;PMS7003;31781;54.094;13.428;2024-03-08T00:55:24;6.33;6.33;5.00
46044;PMS7003;31781;54.094;13.428;2024-03-08T01:01:26;7.00;7.00;5.00
46044;PMS7003;31781;54.094;13.428;2024-03-08T01:07:29;9.00;5.00;4.00
46044;PMS7003;31781;54.094;13.428;2024-03-08T01:13:30;5.00;5.00;4.00
46044;PMS7003;31781;54.094;13.428;2024-03-08T01:19:32;12.00;11.00;8.00
46044;PMS7003;31781;54.094;13.428;2024-03-08T01:25:36;12.67;8.00;5.00
46044;PMS7003;31781;54.094;13.428;2024-03-08T01:31:37;9.67;8.00;5.00
46044;PMS7003;31781;54.094;13.428;2024-03-08T01:37:39;8.00;8.00;6.33
46044;PMS7003;31781;54.094;13.428;2024-03-08T01:43:42;12.33;10.33;8.67
46044;PMS7003;31781;54.094;13.428;2024-03-08T01:49:44;10.67;8.67;5.00
46044;PMS7003;31781;54.094;13.428;2024-03-08T01:55:46;14.33;13.33;8.00
46044;PMS7003;31781;54.094;13.428;2024-03-08T02:01:51;14.67;13.33;11.67
46044;PMS7003;31781;54.094;13.428;2024-03-08T02:07:53;11.00;9.00;6.67
46044;PMS7003;31781;54.094;13.428;2024-03-08T02:13:55;11.00;11.00;9.00
46044;PMS7003;31781;54.094;13.428;2024-03-08T02:19:58;12.00;12.00;8.00
46044;PMS7003;31781;54.094;13.428;2024-03-08T02:26:02;9.00;9.00;8.00
46044;PMS7003;31781;54.094;13.428;2024-03-08T02:32:04;12.00;12.00;9.00
46044;PMS7003;31781;54.094;13.428;2024-03-08T02:38:06;9.33;9.33;5.67
46044;PMS7003;31781;54.094;13.428;2024-03-08T02:44:10;5.67;5.67;4.00
46044;PMS7003;31781;54.094;13.428;2024-03-08T02:50:11;12.00;9.67;8.00
46044;PMS7003;31781;54.094;13.428;2024-03-08T02:56:13;11.33;11.33;8.33
46044;PMS7003;31781;54.094;13.428;2024-03-08T03:02:17;15.67;12.67;9.00
46044;PMS7003;31781;54.094;13.428;2024-03-08T03:08:18;11.33;11.33;8.00
46044;PMS7003;31781;54.094;13.428;2024-03-08T03:14:20;15.00;13.33;9.00
46044;PMS7003;31781;54.094;13.428;2024-03-08T03:20:23;13.33;11.00;5.33
46044;PMS7003;31781;54.094;13.428;2024-03-08T03:26:25;10.67;10.67;7.67
46044;PMS7003;31781;54.094;13.428;2024-03-08T03:32:27;15.00;12.67;10.33
46044;PMS7003;31781;54.094;13.428;2024-03-08T03:38:30;9.33;9.33;6.33
46044;PMS7003;31781;54.094;13.428;2024-03-08T03:44:32;13.00;13.00;9.67
46044;PMS7003;31781;54.094;13.428;2024-03-08T03:50:34;11.00;11.00;8.00
46044;PMS7003;31781;54.094;13.428;2024-03-08T03:56:38;10.67;9.33;7.67
46044;PMS7003;31781;54.094;13.428;2024-03-08T04:02:40;15.67;11.33;8.33
46044;PMS7003;31781;54.094;13.428;2024-03-08T04:08:42;15.67;11.67;8.00
46044;PMS7003;31781;54.094;13.428;2024-03-08T04:14:45;13.33;12.00;8.67
46044;PMS7003;31781;54.094;13.428;2024-03-08T04:20:47;12.00;12.00;8.00
46044;PMS7003;31781;54.094;13.428;2024-03-08T04:26:49;9.33;5.00;2.67
46044;PMS7003;31781;54.094;13.428;2024-03-08T04:32:52;9.67;9.67;7.67
46044;PMS7003;31781;54.094;13.428;2024-03-08T04:38:54;9.67;9.67;7.00
46044;PMS7003;31781;54.094;13.428;2024-03-08T04:44:56;15.67;12.33;8.67
46044;PMS7003;31781;54.094;13.428;2024-03-08T04:50:59;16.00;12.67;9.00
46044;PMS7003;31781;54.094;13.428;2024-03-08T04:57:01;10.33;10.33;8.00
46044;PMS7003;31781;54.094;13.428;2024-03-08T05:03:07;13.33;13.33;8.67
46044;PMS7003;31781;54.094;13.428;2024-03-08T05:09:10;13.33;10.67;7.67
46044;PMS7003;31781;54.094;13.428;2024-03-08T05:15:12;10.00;9.00;7.33
46044;PMS7003;31781;54.094;13.428;2024-03-08T05:21:14;15.00;12.00;9.67
46044;PMS7003;31781;54.094;13.428;2024-03-08T05:27:17;11.33;11.33;8.33
46044;PMS7003;31781;54.094;13.428;2024-03-08T05:33:18;21.67;14.67;8.00
46044;PMS7003;31781;54.094;13.428;2024-03-08T05:39:20;17.00;15.67;11.67
46044;PMS7003;31781;54.094;13.428;2024-03-08T05:45:24;15.33;11.67;8.67
46044;PMS7003;31781;54.094;13.428;2024-03-08T05:51:25;17.33;16.33;8.33
46044;PMS7003;31781;54.094;13.428;2024-03-08T05:57:27;13.33;13.33;8.33
46044;PMS7003;31781;54.094;13.428;2024-03-08T06:03:30;12.33;11.00;8.00
46044;PMS7003;31781;54.094;13.428;2024-03-08T06:09:32;13.33;11.67;8.00
46044;PMS7003;31781;54.094;13.428;2024-03-08T06:15:33;12.67;11.00;8.33
46044;PMS7003;31781;54.094;13.428;2024-03-08T06:21:36;15.67;14.67;9.00
46044;PMS7003;31781;54.094;13.428;2024-03-08T06:27:38;12.67;11.33;8.33
46044;PMS7003;31781;54.094;13.428;2024-03-08T06:33:41;12.33;12.33;10.33
46044;PMS7003;31781;54.094;13.428;2024-03-08T06:39:44;16.67;12.67;9.00
46044;PMS7003;31781;54.094;13.428;2024-03-08T06:45:46;15.33;13.00;9.67
46044;PMS7003;31781;54.094;13.428;2024-03-08T06:51:48;13.00;12.67;9.67
46044;PMS7003;31781;54.094;13.428;2024-03-08T06:57:51;20.00;16.67;10.67
46044;PMS7003;31781;54.094;13.428;2024-03-08T07:03:52;13.00;13.00;9.67
46044;PMS7003;31781;54.094;13.428;2024-03-08T07:09:54;17.00;15.67;12.00
46044;PMS7003;31781;54.094;13.428;2024-03-08T07:15:57;13.00;9.67;6.67
46044;PMS7003;31781;54.094;13.428;2024-03-08T07:21:59;22.00;20.33;12.00
46044;PMS7003;31781;54.094;13.428;2024-03-08T07:28:00;18.33;12.67;10.33
46044;PMS7003;31781;54.094;13.428;2024-03-08T07:34:03;15.33;15.33;11.67
46044;PMS7003;31781;54.094;13.428;2024-03-08T07:40:06;17.33;17.33;13.67
46044;PMS7003;31781;54.094;13.428;2024-03-08T07:46:09;16.00;16.00;11.67
46044;PMS7003;31781;54.094;13.428;2024-03-08T07:52:12;18.67;18.67;12.67
46044;PMS7003;31781;54.094;13.428;2024-03-08T07:58:13;21.33;19.67;14.33
46044;PMS7003;31781;54.094;13.428;2024-03-08T08:04:15;20.00;20.00;15.67
46044;PMS7003;31781;54.094;13.428;2024-03-08T08:10:18;20.33;16.33;11.67
46044;PMS7003;31781;54.094;13.428;2024-03-08T08:16:20;19.00;18.33;12.67
46044;PMS7003;31781;54.094;13.428;2024-03-08T08:22:23;20.67;20.67;15.33
46044;PMS7003;31781;54.094;13.428;2024-03-08T08:28:26;25.33;24.33;17.00
46044;PMS7003;31781;54.094;13.428;2024-03-08T08:34:28;20.00;17.67;14.00
46044;PMS7003;31781;54.094;13.428;2024-03-08T08:40:30;27.67;21.00;14.67
46044;PMS7003;31781;54.094;13.428;2024-03-08T08:46:33;22.00;22.00;14.67
46044;PMS7003;31781;54.094;13.428;2024-03-08T08:52:38;22.67;21.33;14.00
46044;PMS7003;31781;54.094;13.428;2024-03-08T08:58:41;20.67;20.00;13.67
46044;PMS7003;31781;54.094;13.428;2024-03-08T09:04:44;17.00;17.00;10.00
46044;PMS7003;31781;54.094;13.428;2024-03-08T09:10:46;27.00;22.33;14.67
46044;PMS7003;31781;54.094;13.428;2024-03-08T09:16:51;21.67;19.33;13.00
46044;PMS7003;31781;54.094;13.428;2024-03-08T09:22:54;26.33;23.67;15.00
46044;PMS7003;31781;54.094;13.428;2024-03-08T09:28:56;19.00;18.00;11.00
46044;PMS7003;31781;54.094;13.428;2024-03-08T09:34:58;31.75;28.50;18.75
46044;PMS7003;31781;54.094;13.428;2024-03-08T09:41:01;21.00;19.25;14.50
46044;PMS7003;31781;54.094;13.428;2024-03-08T09:47:03;24.75;21.50;15.75
46044;PMS7003;31781;54.094;13.428;2024-03-08T09:53:06;26.50;24.00;15.00
46044;PMS7003;31781;54.094;13.428;2024-03-08T09:59:09;22.25;22.25;15.00
46044;PMS7003;31781;54.094;13.428;2024-03-08T10:05:11;22.75;22.75;16.00
46044;PMS7003;31781;54.094;13.428;2024-03-08T10:11:13;19.75;18.75;15.50
46044;PMS7003;31781;54.094;13.428;2024-03-08T10:17:16;19.50;17.25;13.50
46044;PMS7003;31781;54.094;13.428;2024-03-08T10:23:20;22.50;21.25;17.00
46044;PMS7003;31781;54.094;13.428;2024-03-08T10:29:22;21.50;21.50;14.50
46044;PMS7003;31781;54.094;13.428;2024-03-08T10:35:26;20.00;20.00;13.00
46044;PMS7003;31781;54.094;13.428;2024-03-08T10:41:27;22.00;20.25;11.75
46044;PMS7003;31781;54.094;13.428;2024-03-08T10:47:34;24.25;21.50;14.25
46044;PMS7003;31781;54.094;13.428;2024-03-08T10:53:43;22.50;19.50;12.75
46044;PMS7003;31781;54.094;13.428;2024-03-08T10:59:47;21.75;20.00;16.25
46044;PMS7003;31781;54.094;13.428;2024-03-08T11:05:50;25.75;24.50;14.00
46044;PMS7003;31781;54.094;13.428;2024-03-08T11:11:53;18.25;18.25;14.25
46044;PMS7003;31781;54.094;13.428;2024-03-08T11:18:21;18.75;16.00;13.00
46044;PMS7003;31781;54.094;13.428;2024-03-08T11:24:23;18.00;14.00;11.25
46044;PMS7003;31781;54.094;13.428;2024-03-08T11:30:26;22.75;21.00;13.00
46044;PMS7003;31781;54.094;13.428;2024-03-08T11:36:27;20.75;20.75;14.75
46044;PMS7003;31781;54.094;13.428;2024-03-08T11:42:29;18.75;18.75;13.00
46044;PMS7003;31781;54.094;13.428;2024-03-08T11:48:32;26.50;20.75;13.25
46044;PMS7003;31781;54.094;13.428;2024-03-08T11:54:34;20.50;17.75;12.25
46044;PMS7003;31781;54.094;13.428;2024-03-08T12:00:36;17.50;15.25;9.50
46044;PMS7003;31781;54.094;13.428;2024-03-08T12:06:39;21.50;19.50;14.25
46044;PMS7003;31781;54.094;13.428;2024-03-08T12:12:42;18.25;18.25;12.00
46044;PMS7003;31781;54.094;13.428;2024-03-08T12:18:44;21.75;21.75;14.00
46044;PMS7003;31781;54.094;13.428;2024-03-08T12:31:07;20.50;20.50;13.75
46044;PMS7003;31781;54.094;13.428;2024-03-08T12:37:09;23.75;23.75;14.75
46044;PMS7003;31781;54.094;13.428;2024-03-08T12:43:12;19.00;18.75;10.00
46044;PMS7003;31781;54.094;13.428;2024-03-08T12:49:14;19.75;17.25;13.75
46044;PMS7003;31781;54.094;13.428;2024-03-08T12:55:16;18.75;18.75;12.00
46044;PMS7003;31781;54.094;13.428;2024-03-08T13:01:19;23.25;21.25;14.50
46044;PMS7003;31781;54.094;13.428;2024-03-08T13:07:21;20.75;20.75;15.75
46044;PMS7003;31781;54.094;13.428;2024-03-08T13:13:23;27.50;24.25;18.75
46044;PMS7003;31781;54.094;13.428;2024-03-08T13:19:26;26.00;25.25;19.75
46044;PMS7003;31781;54.094;13.428;2024-03-08T13:25:27;31.00;29.50;22.50
46044;PMS7003;31781;54.094;13.428;2024-03-08T13:31:29;42.00;33.75;26.00
46044;PMS7003;31781;54.094;13.428;2024-03-08T13:37:32;30.00;28.00;20.25
46044;PMS7003;31781;54.094;13.428;2024-03-08T13:43:34;20.75;17.50;12.00
46044;PMS7003;31781;54.094;13.428;2024-03-08T13:49:36;21.50;21.50;15.00
46044;PMS7003;31781;54.094;13.428;2024-03-08T13:55:39;24.75;19.75;13.25
46044;PMS7003;31781;54.094;13.428;2024-03-08T14:01:41;22.25;22.25;14.25
46044;PMS7003;31781;54.094;13.428;2024-03-08T14:07:42;25.50;22.00;14.25
46044;PMS7003;31781;54.094;13.428;2024-03-08T14:13:46;23.25;18.75;10.25
46044;PMS7003;31781;54.094;13.428;2024-03-08T14:19:48;18.75;18.75;14.00
46044;PMS7003;31781;54.094;13.428;2024-03-08T14:25:49;23.00;19.50;14.00
46044;PMS7003;31781;54.094;13.428;2024-03-08T14:31:52;17.00;15.25;11.50
46044;PMS7003;31781;54.094;13.428;2024-03-08T14:37:54;19.00;19.00;13.00
46044;PMS7003;31781;54.094;13.428;2024-03-08T14:43:56;21.75;21.75;13.25
46044;PMS7003;31781;54.094;13.428;2024-03-08T14:50:00;16.75;16.25;10.75
46044;PMS7003;31781;54.094;13.428;2024-03-08T14:56:02;13.25;13.25;10.00
46044;PMS7003;31781;54.094;13.428;2024-03-08T15:02:04;19.75;16.50;11.50
46044;PMS7003;31781;54.094;13.428;2024-03-08T15:08:07;14.75;14.75;11.00
46044;PMS7003;31781;54.094;13.428;2024-03-08T15:14:09;17.75;16.25;11.50
46044;PMS7003;31781;54.094;13.428;2024-03-08T15:20:10;13.25;13.25;10.25
46044;PMS7003;31781;54.094;13.428;2024-03-08T15:26:13;15.50;15.50;11.00
46044;PMS7003;31781;54.094;13.428;2024-03-08T15:32:15;17.50;15.75;10.75
46044;PMS7003;31781;54.094;13.428;2024-03-08T15:38:18;10.75;10.00;5.25
46044;PMS7003;31781;54.094;13.428;2024-03-08T15:44:21;14.25;12.75;10.00
46044;PMS7003;31781;54.094;13.428;2024-03-08T15:50:23;14.50;12.50;8.75
46044;PMS7003;31781;54.094;13.428;2024-03-08T15:56:25;13.50;13.50;10.50
46044;PMS7003;31781;54.094;13.428;2024-03-08T16:02:28;15.75;14.00;10.25
46044;PMS7003;31781;54.094;13.428;2024-03-08T16:08:30;17.25;13.75;11.25
46044;PMS7003;31781;54.094;13.428;2024-03-08T16:14:36;16.25;16.25;11.00
46044;PMS7003;31781;54.094;13.428;2024-03-08T16:20:39;18.25;15.75;11.50
46044;PMS7003;31781;54.094;13.428;2024-03-08T16:26:41;18.25;15.25;11.00
46044;PMS7003;31781;54.094;13.428;2024-03-08T16:32:42;15.25;13.25;11.00
46044;PMS7003;31781;54.094;13.428;2024-03-08T16:38:46;14.25;13.50;10.00
46044;PMS7003;31781;54.094;13.428;2024-03-08T16:44:47;17.00;17.00;11.00
46044;PMS7003;31781;54.094;13.428;2024-03-08T16:50:49;16.33;15.33;11.67
46044;PMS7003;31781;54.094;13.428;2024-03-08T16:56:52;13.67;13.67;9.00
46044;PMS7003;31781;54.094;13.428;2024-03-08T17:02:54;15.67;15.67;14.67
46044;PMS7003;31781;54.094;13.428;2024-03-08T17:08:56;11.33;9.33;5.00
46044;PMS7003;31781;54.094;13.428;2024-03-08T17:14:59;13.67;13.33;9.33
46044;PMS7003;31781;54.094;13.428;2024-03-08T17:21:01;38.00;37.00;26.00
46044;PMS7003;31781;54.094;13.428;2024-03-08T17:27:03;26.67;26.67;19.00
46044;PMS7003;31781;54.094;13.428;2024-03-08T17:33:06;40.00;38.67;26.67
46044;PMS7003;31781;54.094;13.428;2024-03-08T17:39:07;25.00;25.00;21.67
46044;PMS7003;31781;54.094;13.428;2024-03-08T17:45:09;39.00;35.00;26.00
46044;PMS7003;31781;54.094;13.428;2024-03-08T17:51:12;40.33;38.00;25.33
46044;PMS7003;31781;54.094;13.428;2024-03-08T17:57:14;14.00;14.00;9.67
46044;PMS7003;31781;54.094;13.428;2024-03-08T18:03:15;16.00;14.00;10.00
46044;PMS7003;31781;54.094;13.428;2024-03-08T18:09:19;19.67;15.67;9.00
46044;PMS7003;31781;54.094;13.428;2024-03-08T18:15:21;15.67;13.33;10.00
46044;PMS7003;31781;54.094;13.428;2024-03-08T18:21:22;15.67;13.00;9.00
46044;PMS7003;31781;54.094;13.428;2024-03-08T18:27:25;15.33;13.00;9.00
46044;PMS7003;31781;54.094;13.428;2024-03-08T18:33:29;9.33;8.00;6.00
46044;PMS7003;31781;54.094;13.428;2024-03-08T18:39:31;8.67;8.33;7.33
46044;PMS7003;31781;54.094;13.428;2024-03-08T18:45:34;12.00;9.33;8.00
46044;PMS7003;31781;54.094;13.428;2024-03-08T18:51:36;8.00;8.00;6.67
46044;PMS7003;31781;54.094;13.428;2024-03-08T18:57:38;10.67;9.00;6.00
46044;PMS7003;31781;54.094;13.428;2024-03-08T19:03:41;6.00;6.00;5.00
46044;PMS7003;31781;54.094;13.428;2024-03-08T19:09:43;5.33;4.33;3.33
46044;PMS7003;31781;54.094;13.428;2024-03-08T19:15:44;5.33;4.00;2.67
46044;PMS7003;31781;54.094;13.428;2024-03-08T19:21:47;4.00;4.00;2.67
46044;PMS7003;31781;54.094;13.428;2024-03-08T19:27:49;6.33;6.33;5.33
46044;PMS7003;31781;54.094;13.428;2024-03-08T19:33:51;7.33;7.33;4.00
46044;PMS7003;31781;54.094;13.428;2024-03-08T19:39:54;6.33;6.33;5.00
46044;PMS7003;31781;54.094;13.428;2024-03-08T19:45:56;8.00;5.33;4.00
46044;PMS7003;31781;54.094;13.428;2024-03-08T19:51:57;5.67;5.67;4.00
46044;PMS7003;31781;54.094;13.428;2024-03-08T19:58:00;6.67;6.67;5.00
46044;PMS7003;31781;54.094;13.428;2024-03-08T20:04:03;5.00;5.00;5.00
46044;PMS7003;31781;54.094;13.428;2024-03-08T20:10:04;4.00;4.00;2.00
46044;PMS7003;31781;54.094;13.428;2024-03-08T20:16:08;4.67;4.67;3.33
46044;PMS7003;31781;54.094;13.428;2024-03-08T20:22:09;3.33;3.33;2.67
46044;PMS7003;31781;54.094;13.428;2024-03-08T20:28:11;4.00;4.00;4.00
46044;PMS7003;31781;54.094;13.428;2024-03-08T20:34:14;7.33;4.00;1.67
46044;PMS7003;31781;54.094;13.428;2024-03-08T20:40:16;2.00;2.00;2.00
46044;PMS7003;31781;54.094;13.428;2024-03-08T20:46:18;1.00;1.00;1.00
46044;PMS7003;31781;54.094;13.428;2024-03-08T20:52:21;3.33;3.33;1.67
46044;PMS7003;31781;54.094;13.428;2024-03-08T20:58:23;2.00;2.00;2.00
46044;PMS7003;31781;54.094;13.428;2024-03-08T21:04:24;2.67;2.67;2.00
46044;PMS7003;31781;54.094;13.428;2024-03-08T21:10:27;0.00;0.00;0.00
46044;PMS7003;31781;54.094;13.428;2024-03-08T21:16:29;3.33;3.33;1.67
46044;PMS7003;31781;54.094;13.428;2024-03-08T21:22:31;4.00;1.67;1.00
46044;PMS7003;31781;54.094;13.428;2024-03-08T21:28:34;2.00;2.00;1.33
46044;PMS7003;31781;54.094;13.428;2024-03-08T21:34:38;0.33;0.33;0.33
46044;PMS7003;31781;54.094;13.428;2024-03-08T21:40:40;2.00;2.00;1.00
46044;PMS7003;31781;54.094;13.428;2024-03-08T21:47:03;2.00;1.00;0.00
46044;PMS7003;31781;54.094;13.428;2024-03-08T21:53:05;1.00;1.00;1.00
46044;PMS7003;31781;54.094;13.428;2024-03-08T21:59:14;1.33;1.33;1.00
46044;PMS7003;31781;54.094;13.428;2024-03-08T22:05:18;2.00;2.00;1.00
46044;PMS7003;31781;54.094;13.428;2024-03-08T22:11:20;1.00;1.00;1.00
46044;PMS7003;31781;54.094;13.428;2024-03-08T22:17:22;3.67;3.33;1.67
46044;PMS7003;31781;54.094;13.428;2024-03-08T22:23:25;5.00;5.00;4.00
46044;PMS7003;31781;54.094;13.428;2024-03-08T22:29:28;5.67;4.33;2.00
46044;PMS7003;31781;54.094;13.428;2024-03-08T22:35:29;4.00;4.00;2.00
46044;PMS7003;31781;54.094;13.428;2024-03-08T22:41:32;4.33;4.00;2.00
46044;PMS7003;31781;54.094;13.428;2024-03-08T22:47:34;2.67;2.67;2.00
46044;PMS7003;31781;54.094;13.428;2024-03-08T22:53:36;5.00;5.00;4.33
46044;PMS7003;31781;54.094;13.428;2024-03-08T22:59:39;5.67;5.67;4.33
46044;PMS7003;31781;54.094;13.428;2024-03-08T23:05:41;5.00;4.00;3.33
46044;PMS7003;31781;54.094;13.428;2024-03-08T23:11:43;6.33;4.33;3.33
46044;PMS7003;31781;54.094;13.428;2024-03-08T23:17:46;9.33;5.00;4.00
46044;PMS7003;31781;54.094;13.428;2024-03-08T23:23:48;7.67;5.00;4.33
46044;PMS7003;31781;54.094;13.428;2024-03-08T23:29:50;5.67;5.67;4.67
46044;PMS7003;31781;54.094;13.428;2024-03-08T23:35:53;8.00;8.00;5.67
46044;PMS7003;31781;54.094;13.428;2024-03-08T23:41:54;8.33;8.33;6.33
46044;PMS7003;31781;54.094;13.428;2024-03-08T23:47:56;8.33;8.33;6.33
46044;PMS7003;31781;54.094;13.428;2024-03-08T23:54:00;8.00;7.00;4.67
